createdAt,value
2018-01-20T00:01:19.375Z,78.30
2018-01-20T00:03:46.951Z,78.20
2018-01-20T00:06:14.531Z,78.40
2018-01-20T00:08:42.060Z,78.30
2018-01-20T00:11:21.555Z,78.50
2018-01-20T00:13:49.143Z,78.50
2018-01-20T00:16:16.700Z,78.60
2018-01-20T00:18:44.242Z,78.60
2018-01-20T00:21:11.816Z,78.70
2018-01-20T00:23:39.342Z,78.70
2018-01-20T00:26:13.516Z,78.90
2018-01-20T00:28:41.052Z,78.90
2018-01-20T00:31:08.624Z,79.00
2018-01-20T00:33:36.168Z,79.10
2018-01-20T00:36:03.745Z,79.10
2018-01-20T00:38:31.282Z,79.20
2018-01-20T00:40:58.854Z,79.20
2018-01-20T00:43:26.385Z,79.30
2018-01-20T00:45:53.965Z,79.30
2018-01-20T00:48:21.494Z,79.30
2018-01-20T00:50:49.853Z,79.40
2018-01-20T00:53:17.398Z,79.40
2018-01-20T00:55:44.987Z,80.30
2018-01-20T00:58:13.339Z,79.50
2018-01-20T01:00:40.866Z,79.40
2018-01-20T01:03:08.435Z,79.50
2018-01-20T01:05:35.965Z,79.60
2018-01-20T01:08:03.515Z,79.50
2018-01-20T01:10:31.105Z,79.60
2018-01-20T01:12:58.637Z,79.70
2018-01-20T01:15:26.218Z,79.70
2018-01-20T01:17:53.882Z,79.70
2018-01-20T01:20:21.463Z,79.70
2018-01-20T01:22:48.995Z,79.80
2018-01-20T01:25:16.591Z,79.70
2018-01-20T01:27:44.171Z,79.70
2018-01-20T01:30:11.730Z,79.70
2018-01-20T01:32:39.257Z,79.80
2018-01-20T01:35:06.829Z,80.20
2018-01-20T01:37:34.359Z,79.80
2018-01-20T01:40:01.948Z,79.70
2018-01-20T01:42:29.480Z,79.70
2018-01-20T01:44:57.059Z,79.90
2018-01-20T01:47:24.634Z,80.00
2018-01-20T01:49:52.173Z,80.10
2018-01-20T01:52:19.756Z,80.00
2018-01-20T01:54:47.278Z,80.00
2018-01-20T01:57:14.854Z,80.00
2018-01-20T01:59:42.388Z,80.10
2018-01-20T02:02:09.955Z,80.10
2018-01-20T02:04:37.489Z,80.10
2018-01-20T02:07:05.028Z,80.20
2018-01-20T02:09:33.385Z,80.20
2018-01-20T02:12:00.907Z,80.10
2018-01-20T02:14:28.470Z,80.20
2018-01-20T02:16:56.000Z,80.10
2018-01-20T02:19:24.337Z,80.40
2018-01-20T02:21:51.881Z,80.30
2018-01-20T02:24:19.451Z,80.20
2018-01-20T02:26:47.036Z,80.20
2018-01-20T02:29:15.351Z,80.40
2018-01-20T02:31:42.937Z,80.30
2018-01-20T02:34:10.468Z,80.40
2018-01-20T02:36:38.053Z,80.40
2018-01-20T02:39:05.584Z,80.30
2018-01-20T02:41:33.164Z,80.40
2018-01-20T02:44:00.692Z,80.30
2018-01-20T02:46:29.028Z,80.40
2018-01-20T02:48:56.576Z,80.40
2018-01-20T02:51:24.147Z,80.50
2018-01-20T02:53:51.674Z,80.50
2018-01-20T02:56:19.244Z,80.50
2018-01-20T02:58:46.778Z,80.50
2018-01-20T03:01:14.345Z,80.50
2018-01-20T03:03:41.880Z,80.60
2018-01-20T03:06:10.298Z,80.50
2018-01-20T03:08:37.832Z,80.50
2018-01-20T03:11:05.403Z,80.50
2018-01-20T03:13:32.933Z,80.50
2018-01-20T03:16:01.274Z,80.60
2018-01-20T03:18:28.800Z,80.60
2018-01-20T03:20:56.377Z,80.60
2018-01-20T03:23:23.917Z,80.50
2018-01-20T03:25:51.483Z,80.50
2018-01-20T03:28:19.025Z,80.50
2018-01-20T03:30:46.605Z,80.60
2018-01-20T03:33:14.142Z,80.50
2018-01-20T03:35:41.733Z,80.40
2018-01-20T03:38:09.267Z,80.40
2018-01-20T03:40:36.835Z,80.40
2018-01-20T03:43:04.367Z,80.40
2018-01-20T03:45:32.702Z,80.50
2018-01-20T03:48:00.240Z,80.30
2018-01-20T03:50:27.819Z,80.40
2018-01-20T03:52:55.348Z,80.40
2018-01-20T03:55:22.922Z,80.40
2018-01-20T03:57:50.460Z,80.40
2018-01-20T04:00:18.040Z,80.40
2018-01-20T04:02:45.571Z,80.40
2018-01-20T04:05:13.911Z,80.50
2018-01-20T04:07:41.438Z,80.40
2018-01-20T04:10:08.969Z,80.40
2018-01-20T04:12:37.313Z,80.40
2018-01-20T04:15:04.882Z,80.40
2018-01-20T04:17:32.407Z,81.30
2018-01-20T04:19:59.986Z,80.50
2018-01-20T04:22:27.524Z,80.50
2018-01-20T04:24:55.108Z,80.50
2018-01-20T04:27:22.647Z,80.40
2018-01-20T04:29:50.296Z,80.40
2018-01-20T04:32:17.823Z,80.40
2018-01-20T04:34:46.163Z,80.40
2018-01-20T04:37:13.697Z,80.30
2018-01-20T04:39:41.271Z,80.40
2018-01-20T04:42:08.803Z,80.30
2018-01-20T04:44:36.379Z,80.30
2018-01-20T04:47:03.972Z,80.20
2018-01-20T04:49:31.546Z,80.20
2018-01-20T04:51:59.084Z,80.30
2018-01-20T04:54:26.661Z,80.40
2018-01-20T04:56:54.199Z,80.70
2018-01-20T04:59:21.764Z,80.60
2018-01-20T05:01:49.295Z,80.70
2018-01-20T05:04:16.952Z,80.60
2018-01-20T05:06:44.489Z,80.70
2018-01-20T05:09:12.068Z,80.60
2018-01-20T05:11:39.602Z,80.70
2018-01-20T05:14:07.963Z,81.00
2018-01-20T05:16:36.251Z,80.80
2018-01-20T05:19:04.629Z,81.10
2018-01-20T05:21:32.972Z,80.80
2018-01-20T05:24:00.509Z,80.80
2018-01-20T05:26:28.088Z,80.80
2018-01-20T05:28:55.620Z,81.10
2018-01-20T05:31:23.200Z,81.10
2018-01-20T05:33:50.723Z,81.30
2018-01-20T05:36:18.300Z,81.70
2018-01-20T05:38:45.832Z,81.50
2018-01-20T05:41:13.402Z,81.40
2018-01-20T05:43:40.942Z,81.40
2018-01-20T05:46:09.287Z,81.50
2018-01-20T05:48:36.817Z,81.40
2018-01-20T05:51:04.390Z,82.20
2018-01-20T05:53:31.924Z,81.60
2018-01-20T05:55:59.507Z,81.50
2018-01-20T05:58:27.051Z,81.70
2018-01-20T06:00:54.615Z,81.40
2018-01-20T06:03:22.138Z,81.30
2018-01-20T06:05:50.466Z,81.60
2018-01-20T06:08:17.999Z,81.40
2018-01-20T06:10:45.574Z,81.50
2018-01-20T06:13:13.114Z,81.60
2018-01-20T06:15:40.681Z,81.70
2018-01-20T06:18:08.213Z,81.30
2018-01-20T06:20:36.627Z,81.60
2018-01-20T06:23:04.152Z,81.60
2018-01-20T06:25:31.768Z,81.50
2018-01-20T06:27:59.301Z,81.70
2018-01-20T06:30:26.879Z,81.60
2018-01-20T06:32:54.414Z,81.70
2018-01-20T06:35:21.983Z,81.30
2018-01-20T06:37:49.520Z,81.50
2018-01-20T06:40:17.098Z,81.40
2018-01-20T06:42:44.663Z,81.50
2018-01-20T06:45:12.240Z,81.40
2018-01-20T06:47:39.770Z,81.70
2018-01-20T06:50:07.346Z,81.70
2018-01-20T06:52:34.887Z,81.50
2018-01-20T06:55:02.462Z,81.40
2018-01-20T06:57:29.993Z,81.50
2018-01-20T06:59:57.578Z,81.50
2018-01-20T07:02:25.112Z,81.50
2018-01-20T07:04:53.449Z,81.30
2018-01-20T07:07:20.973Z,81.40
2018-01-20T07:09:48.551Z,81.50
2018-01-20T07:12:16.079Z,81.40
2018-01-20T07:14:43.672Z,81.50
2018-01-20T07:17:11.203Z,81.30
2018-01-20T07:19:38.777Z,81.30
2018-01-20T07:22:06.348Z,81.20
2018-01-20T07:24:33.872Z,81.10
2018-01-20T07:27:01.458Z,81.10
2018-01-20T07:29:28.992Z,81.50
2018-01-20T07:31:56.556Z,81.50
2018-01-20T07:34:24.091Z,81.70
2018-01-20T07:36:52.384Z,82.10
2018-01-20T07:39:20.712Z,82.10
2018-01-20T07:41:48.238Z,82.10
2018-01-20T07:44:15.806Z,82.20
2018-01-20T07:46:43.358Z,82.20
2018-01-20T07:49:10.935Z,82.40
2018-01-20T07:51:38.471Z,82.50
2018-01-20T07:54:06.036Z,82.50
2018-01-20T07:56:33.568Z,82.50
2018-01-20T07:59:01.908Z,82.50
2018-01-20T08:01:29.452Z,82.50
2018-01-20T08:03:57.101Z,83.30
2018-01-20T08:06:24.629Z,82.60
2018-01-20T08:08:52.965Z,82.70
2018-01-20T08:11:20.498Z,82.70
2018-01-20T08:13:48.146Z,82.60
2018-01-20T08:16:15.670Z,82.90
2018-01-20T08:18:44.026Z,82.00
2018-01-20T08:21:11.581Z,81.90
2018-01-20T08:23:39.200Z,81.50
2018-01-20T08:26:06.723Z,80.90
2018-01-20T08:28:34.300Z,81.50
2018-01-20T08:31:02.676Z,82.40
2018-01-20T08:33:30.227Z,82.40
2018-01-20T08:35:58.528Z,82.60
2018-01-20T08:38:26.114Z,82.60
2018-01-20T08:40:53.648Z,82.60
2018-01-20T08:43:21.335Z,82.70
2018-01-20T08:45:48.902Z,82.70
2018-01-20T08:48:16.491Z,82.70
2018-01-20T08:50:44.036Z,82.70
2018-01-20T08:53:11.643Z,82.90
2018-01-20T08:55:39.213Z,83.00
2018-01-20T08:58:07.377Z,83.00
2018-01-20T09:00:34.962Z,83.00
2018-01-20T09:03:02.638Z,83.00
2018-01-20T09:05:30.205Z,83.10
2018-01-20T09:07:57.784Z,83.30
2018-01-20T09:10:25.324Z,83.10
2018-01-20T09:12:52.901Z,83.20
2018-01-20T09:15:20.426Z,83.20
2018-01-20T09:17:48.002Z,83.30
2018-01-20T09:20:15.556Z,82.40
2018-01-20T09:22:43.137Z,82.30
2018-01-20T09:25:10.663Z,81.80
2018-01-20T09:27:38.231Z,82.40
2018-01-20T09:30:05.763Z,83.20
2018-01-20T09:32:33.351Z,82.10
2018-01-20T09:35:00.879Z,81.50
2018-01-20T09:37:28.445Z,81.20
2018-01-20T09:39:56.023Z,81.00
2018-01-20T09:42:23.596Z,80.90
2018-01-20T09:44:51.125Z,80.70
2018-01-20T09:47:18.704Z,80.30
2018-01-20T09:49:46.232Z,79.80
2018-01-20T09:52:14.572Z,79.00
2018-01-20T09:54:42.099Z,78.90
2018-01-20T09:57:09.674Z,78.80
2018-01-20T09:59:37.224Z,79.00
2018-01-20T10:02:04.804Z,78.90
2018-01-20T10:04:32.338Z,78.90
2018-01-20T10:06:59.865Z,78.60
2018-01-20T10:09:28.214Z,78.50
2018-01-20T10:11:55.741Z,78.40
2018-01-20T10:14:23.317Z,78.60
2018-01-20T10:16:50.853Z,78.80
2018-01-20T10:19:18.411Z,78.80
2018-01-20T10:21:45.931Z,79.00
2018-01-20T10:24:14.269Z,79.30
2018-01-20T10:26:41.804Z,79.20
2018-01-20T10:29:09.376Z,79.10
2018-01-20T10:31:36.914Z,79.30
2018-01-20T10:34:04.492Z,79.40
2018-01-20T10:36:32.019Z,79.90
2018-01-20T10:39:00.347Z,80.90
2018-01-20T10:41:27.887Z,80.90
2018-01-20T10:43:55.462Z,81.60
2018-01-20T10:46:23.083Z,82.30
2018-01-20T10:48:50.661Z,83.10
2018-01-20T10:51:18.204Z,83.30
2018-01-20T10:53:45.777Z,83.40
2018-01-20T10:56:13.307Z,83.50
2018-01-20T10:58:41.653Z,83.60
2018-01-20T11:01:09.182Z,83.60
2018-01-20T11:03:36.755Z,83.60
2018-01-20T11:06:04.297Z,83.80
2018-01-20T11:08:32.284Z,83.50
2018-01-20T11:10:59.845Z,83.40
2018-01-20T11:13:27.420Z,83.30
2018-01-20T11:15:54.949Z,83.20
2018-01-20T11:18:22.523Z,83.20
2018-01-20T11:20:50.068Z,82.90
2018-01-20T11:23:17.650Z,82.60
2018-01-20T11:25:45.186Z,82.60
2018-01-20T11:28:12.767Z,82.40
2018-01-20T11:30:40.304Z,82.00
2018-01-20T11:33:07.882Z,81.60
2018-01-20T11:35:35.408Z,81.70
2018-01-20T11:38:02.936Z,81.70
2018-01-20T11:40:31.281Z,82.10
2018-01-20T11:42:58.818Z,82.00
2018-01-20T11:45:26.416Z,82.30
2018-01-20T11:47:53.992Z,82.40
2018-01-20T11:50:22.300Z,82.80
2018-01-20T11:52:49.878Z,82.70
2018-01-20T11:55:17.405Z,82.90
2018-01-20T11:57:45.752Z,82.80
2018-01-20T12:00:13.283Z,82.70
2018-01-20T12:02:40.879Z,82.70
2018-01-20T12:05:08.403Z,82.60
2018-01-20T12:07:35.972Z,82.50
2018-01-20T12:10:03.505Z,82.70
2018-01-20T12:12:31.079Z,82.70
2018-01-20T12:14:58.610Z,82.70
2018-01-20T12:17:26.211Z,82.70
2018-01-20T12:19:53.744Z,82.80
2018-01-20T12:22:21.328Z,82.80
2018-01-20T12:24:48.864Z,82.90
2018-01-20T12:27:16.434Z,83.00
2018-01-20T12:29:43.967Z,82.90
2018-01-20T12:32:11.546Z,83.00
2018-01-20T12:34:39.083Z,83.00
2018-01-20T12:37:06.660Z,83.00
2018-01-20T12:39:34.195Z,82.90
2018-01-20T12:42:02.536Z,82.70
2018-01-20T12:44:30.073Z,82.80
2018-01-20T12:46:57.642Z,82.70
2018-01-20T12:49:25.172Z,82.70
2018-01-20T12:51:52.742Z,82.30
2018-01-20T12:54:20.273Z,82.50
2018-01-20T12:56:48.604Z,82.40
2018-01-20T12:59:16.139Z,82.40
2018-01-20T13:01:43.712Z,82.20
2018-01-20T13:04:11.243Z,82.20
2018-01-20T13:06:38.820Z,82.10
2018-01-20T13:09:06.358Z,82.20
2018-01-20T13:11:33.938Z,81.70
2018-01-20T13:14:01.478Z,81.90
2018-01-20T13:16:29.059Z,82.00
2018-01-20T13:18:56.604Z,82.10
2018-01-20T13:21:24.147Z,82.20
2018-01-20T13:23:51.714Z,82.10
2018-01-20T13:26:19.296Z,82.00
2018-01-20T13:28:46.833Z,82.20
2018-01-20T13:31:14.408Z,82.30
2018-01-20T13:33:41.939Z,82.10
2018-01-20T13:36:10.283Z,81.90
2018-01-20T13:38:37.823Z,82.00
2018-01-20T13:41:05.359Z,82.00
2018-01-20T13:43:32.932Z,82.00
2018-01-20T13:46:00.470Z,82.10
2018-01-20T13:48:28.046Z,82.10
2018-01-20T13:50:55.570Z,82.00
2018-01-20T13:53:23.927Z,82.10
2018-01-20T13:55:51.480Z,82.10
2018-01-20T13:58:19.069Z,82.20
2018-01-20T14:00:47.375Z,81.90
2018-01-20T14:03:14.943Z,81.90
2018-01-20T14:05:42.465Z,82.00
2018-01-20T14:08:10.814Z,82.20
2018-01-20T14:10:38.370Z,82.10
2018-01-20T14:13:05.948Z,82.10
2018-01-20T14:15:33.484Z,82.10
2018-01-20T14:18:01.047Z,82.70
2018-01-20T14:20:28.577Z,81.90
2018-01-20T14:22:56.151Z,82.00
2018-01-20T14:25:23.683Z,82.20
2018-01-20T14:27:51.255Z,82.20
2018-01-20T14:30:18.835Z,82.80
2018-01-20T14:32:46.368Z,82.20
2018-01-20T14:35:13.959Z,82.20
2018-01-20T14:37:41.496Z,82.20
2018-01-20T14:40:09.031Z,81.90
2018-01-20T14:42:36.610Z,82.20
2018-01-20T14:45:04.171Z,82.30
2018-01-20T14:47:31.750Z,82.60
2018-01-20T14:49:59.279Z,82.60
2018-01-20T14:52:26.845Z,82.50
2018-01-20T14:54:54.383Z,82.50
2018-01-20T14:57:21.955Z,82.50
2018-01-20T14:59:49.502Z,82.60
2018-01-20T15:02:17.836Z,82.70
2018-01-20T15:04:45.389Z,82.70
2018-01-20T15:07:12.982Z,82.80
2018-01-20T15:09:41.517Z,83.30
2018-01-20T15:12:09.101Z,82.50
2018-01-20T15:14:36.736Z,82.80
2018-01-20T15:17:04.277Z,82.70
2018-01-20T15:19:31.799Z,82.70
2018-01-20T15:21:59.379Z,82.70
2018-01-20T15:24:27.844Z,82.70
2018-01-20T15:26:55.367Z,82.60
2018-01-20T15:29:22.912Z,82.60
2018-01-20T15:31:50.519Z,82.70
2018-01-20T15:34:18.048Z,82.80
2018-01-20T15:36:45.624Z,82.80
2018-01-20T15:39:13.169Z,82.70
2018-01-20T15:41:40.775Z,82.40
2018-01-20T15:44:09.074Z,82.50
2018-01-20T15:46:36.650Z,82.50
2018-01-20T15:49:04.189Z,82.40
2018-01-20T15:51:31.767Z,82.40
2018-01-20T15:53:59.305Z,82.30
2018-01-20T15:56:26.874Z,82.40
2018-01-20T15:58:54.403Z,82.50
2018-01-20T16:01:22.751Z,82.30
2018-01-20T16:03:50.283Z,82.20
2018-01-20T16:06:17.870Z,82.60
2018-01-20T16:08:45.390Z,82.60
2018-01-20T16:11:13.061Z,82.00
2018-01-20T16:13:40.693Z,82.10
2018-01-20T16:16:08.987Z,83.00
2018-01-20T16:18:36.579Z,83.00
2018-01-20T16:21:04.190Z,83.10
2018-01-20T16:23:32.568Z,83.20
2018-01-20T16:26:00.860Z,83.20
2018-01-20T16:28:28.425Z,83.20
2018-01-20T16:30:55.951Z,83.00
2018-01-20T16:33:24.287Z,83.10
2018-01-20T16:35:51.821Z,83.10
2018-01-20T16:38:19.402Z,83.30
2018-01-20T16:40:46.982Z,83.40
2018-01-20T16:43:14.601Z,83.30
2018-01-20T16:45:42.173Z,83.90
2018-01-20T16:48:09.742Z,83.70
2018-01-20T16:50:37.324Z,83.50
2018-01-20T16:53:04.895Z,83.90
2018-01-20T16:55:32.428Z,83.80
2018-01-20T16:58:00.001Z,83.90
2018-01-20T17:00:27.589Z,83.50
2018-01-20T17:02:55.935Z,84.50
2018-01-20T17:05:23.511Z,83.70
2018-01-20T17:07:51.087Z,83.70
2018-01-20T17:10:19.385Z,83.70
2018-01-20T17:12:47.011Z,83.60
2018-01-20T17:15:14.542Z,83.80
2018-01-20T17:17:42.120Z,84.10
2018-01-20T17:20:09.647Z,84.20
2018-01-20T17:22:37.222Z,84.10
2018-01-20T17:25:04.750Z,84.10
2018-01-20T17:27:32.328Z,84.20
2018-01-20T17:29:59.916Z,84.30
2018-01-20T17:32:27.489Z,84.30
2018-01-20T17:34:55.024Z,84.40
2018-01-20T17:37:22.654Z,84.40
2018-01-20T17:39:50.452Z,84.40
2018-01-20T17:42:18.082Z,84.60
2018-01-20T17:44:45.617Z,84.50
2018-01-20T17:47:13.949Z,84.70
2018-01-20T17:49:41.530Z,84.60
2018-01-20T17:52:09.108Z,84.80
2018-01-20T17:54:37.461Z,84.90
2018-01-20T17:57:05.033Z,84.90
2018-01-20T17:59:32.623Z,84.90
2018-01-20T18:02:02.066Z,85.00
2018-01-20T18:04:30.615Z,85.00
2018-01-20T18:06:58.188Z,84.90
2018-01-20T18:09:25.720Z,84.90
2018-01-20T18:11:54.093Z,85.10
2018-01-20T18:14:24.063Z,85.20
2018-01-20T18:16:51.675Z,85.20
2018-01-20T18:19:19.962Z,85.20
2018-01-20T18:21:47.588Z,85.20
2018-01-20T18:24:15.164Z,85.10
2018-01-20T18:26:42.769Z,85.20
2018-01-20T18:29:10.328Z,86.00
2018-01-20T18:31:37.900Z,85.30
2018-01-20T18:34:05.478Z,85.30
2018-01-20T18:36:33.085Z,85.20
2018-01-20T18:39:01.423Z,85.40
2018-01-20T18:41:30.497Z,85.50
2018-01-20T18:43:58.023Z,85.40
2018-01-20T18:46:25.586Z,85.40
2018-01-20T18:48:53.131Z,85.30
2018-01-20T18:51:21.510Z,85.40
2018-01-20T18:53:49.843Z,85.50
2018-01-20T18:56:17.417Z,85.40
2018-01-20T18:58:44.993Z,85.50
2018-01-20T19:01:12.563Z,85.40
2018-01-20T19:03:40.919Z,85.40
2018-01-20T19:06:08.454Z,85.30
2018-01-20T19:08:36.040Z,85.30
2018-01-20T19:11:03.624Z,85.50
2018-01-20T19:13:31.983Z,85.40
2018-01-20T19:15:59.555Z,85.40
2018-01-20T19:18:27.907Z,85.40
2018-01-20T19:20:55.487Z,85.40
2018-01-20T19:23:23.093Z,85.40
2018-01-20T19:25:50.718Z,85.50
2018-01-20T19:28:19.065Z,85.60
2018-01-20T19:30:46.686Z,85.50
2018-01-20T19:33:14.273Z,85.40
2018-01-20T19:35:42.968Z,85.40
2018-01-20T19:38:10.591Z,85.50
2018-01-20T19:40:38.125Z,85.50
2018-01-20T19:43:06.466Z,85.50
2018-01-20T19:45:34.111Z,85.50
2018-01-20T19:48:01.877Z,85.40
2018-01-20T19:50:29.480Z,86.20
2018-01-20T19:52:57.173Z,85.50
2018-01-20T19:55:24.850Z,85.60
2018-01-20T19:57:52.433Z,85.50
2018-01-20T20:00:19.991Z,85.50
2018-01-20T20:02:47.769Z,85.50
2018-01-20T20:05:15.382Z,85.60
2018-01-20T20:07:43.076Z,85.70
2018-01-20T20:10:10.825Z,85.50
2018-01-20T20:12:38.542Z,85.60
2018-01-20T20:15:07.080Z,85.60
2018-01-20T20:17:34.739Z,85.50
2018-01-20T20:20:02.354Z,85.50
2018-01-20T20:22:30.747Z,85.50
2018-01-20T20:24:58.351Z,85.50
2018-01-20T20:27:26.046Z,85.60
2018-01-20T20:29:54.434Z,85.70
2018-01-20T20:32:22.853Z,85.70
2018-01-20T20:34:50.541Z,85.50
2018-01-20T20:37:18.286Z,85.70
2018-01-20T20:39:45.890Z,85.70
2018-01-20T20:42:14.462Z,85.60
2018-01-20T20:44:42.297Z,85.60
2018-01-20T20:47:09.921Z,85.60
2018-01-20T20:49:38.349Z,85.60
2018-01-20T20:52:05.950Z,85.50
2018-01-20T20:54:34.407Z,85.60
2018-01-20T20:57:02.085Z,85.60
2018-01-20T20:59:29.613Z,85.60
2018-01-20T21:01:57.287Z,85.70
2018-01-20T21:04:25.495Z,85.60
2018-01-20T21:06:53.843Z,85.70
2018-01-20T21:09:21.448Z,85.70
2018-01-20T21:11:49.067Z,85.70
2018-01-20T21:14:16.689Z,85.70
2018-01-20T21:16:44.354Z,85.80
2018-01-20T21:19:12.024Z,85.70
2018-01-20T21:21:39.592Z,85.70
2018-01-20T21:24:07.177Z,85.70
2018-01-20T21:26:34.787Z,85.80
2018-01-20T21:29:02.357Z,85.80
2018-01-20T21:31:29.990Z,85.80
2018-01-20T21:33:57.522Z,85.80
2018-01-20T21:36:25.147Z,85.80
2018-01-20T21:38:52.671Z,85.70
2018-01-20T21:41:20.867Z,85.70
2018-01-20T21:43:48.442Z,85.70
2018-01-20T21:46:16.066Z,85.70
2018-01-20T21:48:44.415Z,85.70
2018-01-20T21:51:12.811Z,85.70
2018-01-20T21:53:41.107Z,85.80
2018-01-20T21:56:08.719Z,85.80
2018-01-20T21:58:36.304Z,85.80
2018-01-20T22:01:04.642Z,85.80
2018-01-20T22:03:32.174Z,85.80
2018-01-20T22:05:59.748Z,85.80
2018-01-20T22:08:27.288Z,85.90
2018-01-20T22:10:54.901Z,85.90
2018-01-20T22:13:22.481Z,85.90
2018-01-20T22:15:50.862Z,85.80
2018-01-20T22:18:19.210Z,86.00
2018-01-20T22:20:46.780Z,85.90
2018-01-20T22:23:14.363Z,85.90
2018-01-20T22:25:42.741Z,86.00
2018-01-20T22:28:11.133Z,86.00
2018-01-20T22:30:39.471Z,85.90
2018-01-20T22:33:07.089Z,85.90
2018-01-20T22:35:34.666Z,85.80
2018-01-20T22:38:02.244Z,85.90
2018-01-20T22:40:29.808Z,86.00
2018-01-20T22:42:57.384Z,86.00
2018-01-20T22:45:24.921Z,86.00
2018-01-20T22:47:52.490Z,86.00
2018-01-20T22:50:20.018Z,86.10
2018-01-20T22:52:47.632Z,86.00
2018-01-20T22:55:15.241Z,86.10
2018-01-20T22:57:42.962Z,86.10
2018-01-20T23:03:18.482Z,86.00
2018-01-20T23:05:47.340Z,86.30
2018-01-20T23:08:14.958Z,86.20
2018-01-20T23:10:42.490Z,86.20
2018-01-20T23:13:10.051Z,86.10
2018-01-20T23:15:37.576Z,86.20
2018-01-20T23:18:05.187Z,86.30
2018-01-20T23:20:32.719Z,86.30
2018-01-20T23:23:00.290Z,86.20
2018-01-20T23:25:27.862Z,86.20
2018-01-20T23:27:55.505Z,86.30
2018-01-20T23:30:23.038Z,86.30
2018-01-20T23:32:50.604Z,86.30
2018-01-20T23:35:18.138Z,86.30
2018-01-20T23:37:46.511Z,86.40
2018-01-20T23:40:14.041Z,86.40
2018-01-20T23:42:41.602Z,86.40
2018-01-20T23:45:09.132Z,86.30
2018-01-20T23:47:36.741Z,86.40
2018-01-20T23:50:04.272Z,86.40
2018-01-20T23:52:31.845Z,87.20
2018-01-20T23:54:59.414Z,86.50
2018-01-20T23:57:27.021Z,86.50
2018-01-20T23:59:54.546Z,86.50
